Hordafor III — LLVC — position and weather

sailwx.info

Track history (hours):
 
Tides and Currents Weather Stations Pressure Air Temp Water Temp Dewpoint Dewpoint Depression Visibility Wind Speed Wind Dir Waves Ship Positions

Hordafor III

Last reported at 2015-Jul-26 03:12 UTC. Time now 2015-Aug-04 11:45 UTC.
Position N 63°35' E 009°26'.
Warning: this ship's position is 9 days out of date.

Length 50 m; draft 6 m.

Type: Wing in ground effect craft. MMSI: 258044000.

Date/timePositionNaut miles runAvg speedWind from/ knotsBaromVisibWave heightAir tempDewpointWater temp
2015-Jul-26 03:12N 63°35' E 009°26'610.1
2015-Jul-26 02:33N 63°42' E 009°30'1010.1
2015-Jul-26 01:33N 63°51' E 009°39'10 9.7
2015-Jul-26 00:33N 63°60' E 009°47'59 9.9
2015-Jul-25 18:33N 64°48' E 011°07'10 9.9
2015-Jul-25 17:33N 64°55' E 011°24'1010.2
2015-Jul-25 16:33N 65°02' E 011°42'1210.3
2015-Jul-25 15:26N 65°12' E 011°53'64 9.4
2015-Jul-25 08:33N 66°15' E 012°26'7 6.7
2015-Jul-25 07:33N 66°22' E 012°22'0 0.0
2015-Jul-25 06:33N 66°22' E 012°22'0 0.0
2015-Jul-25 05:33N 66°22' E 012°22'0 0.0
2015-Jul-25 04:33N 66°22' E 012°22'0 0.0
2015-Jul-25 03:33N 66°22' E 012°22'0 0.1
2015-Jul-25 02:33N 66°22' E 012°23'0 0.0
2015-Jul-25 01:33N 66°22' E 012°23'0 0.0
2015-Jul-25 00:33N 66°22' E 012°23'0 0.0
2015-Jul-24 23:33N 66°22' E 012°23'4 3.9
2015-Jul-24 22:33N 66°24' E 012°30'1210.4
2015-Jul-24 21:23N 66°29' E 012°58'4 1.9
2015-Jul-24 19:04N 66°25' E 013°01'78 6.6
2015-Jul-24 07:12N 65°13' E 011°53'711.1
2015-Jul-24 06:32N 65°06' E 011°47'1010.6
2015-Jul-24 05:33N 64°58' E 011°32'1110.6
2015-Jul-24 04:33N 64°51' E 011°12'6310.2
2015-Jul-23 22:23N 63°60' E 009°47'8 9.9
2015-Jul-23 21:33N 63°52' E 009°42'10 9.9
2015-Jul-23 20:31N 63°43' E 009°31'  
2015-Jul-20 01:32N 63°37' E 009°27'1010.5
2015-Jul-20 00:33N 63°47' E 009°33'1110.7
2015-Jul-19 23:33N 63°55' E 009°47'1010.1
2015-Jul-19 22:33N 64°05' E 009°55'5310.5
2015-Jul-19 17:33N 64°48' E 011°06'1111.0
2015-Jul-19 16:33N 64°55' E 011°25'1110.8
2015-Jul-19 15:33N 65°03' E 011°43'1111.0
2015-Jul-19 14:33N 65°13' E 011°54'7410.1
2015-Jul-19 07:11N 66°22' E 012°58'710.1
2015-Jul-19 06:31N 66°29' E 012°59'6010.0
2015-Jul-19 00:33N 67°20' E 014°20'10 9.8
2015-Jul-18 23:33N 67°29' E 014°23'3 0.2
2015-Jul-18 11:27N 67°31' E 014°29'1011.4
2015-Jul-18 10:33N 67°21' E 014°22'1111.4
2015-Jul-18 09:33N 67°11' E 014°05'1111.1
2015-Jul-18 08:32N 67°02' E 013°48'1110.5
2015-Jul-18 07:31N 66°55' E 013°28'3110.3
2015-Jul-18 04:30N 66°27' E 012°51'1010.8
2015-Jul-18 03:33N 66°23' E 012°27'2 2.2
2015-Jul-18 02:33N 66°22' E 012°23'0 0.0
2015-Jul-18 01:33N 66°22' E 012°23'0 0.0
2015-Jul-18 00:33N 66°22' E 012°23'0 0.1
2015-Jul-17 23:33N 66°22' E 012°22'0 0.0
2015-Jul-17 22:33N 66°22' E 012°22'5 4.7
2015-Jul-17 21:33N 66°17' E 012°23'61 9.5
2015-Jul-17 15:07N 65°17' E 011°58'710.8
2015-Jul-17 14:31N 65°11' E 011°52'1110.9
2015-Jul-17 13:32N 65°01' E 011°42'1010.4
2015-Jul-17 12:33N 64°55' E 011°23'5 4.8
2015-Jul-17 11:33N 64°52' E 011°15'3 3.5
2015-Jul-17 10:33N 64°49' E 011°09'5410.3
2015-Jul-17 05:20N 64°03' E 010°03'8 9.7
2015-Jul-17 04:33N 63°58' E 009°51'1010.4
2015-Jul-17 03:33N 63°50' E 009°37'1010.3
2015-Jul-17 02:33N 63°40' E 009°29'  
Track history (hours):
 
Tides and Currents Weather Stations Pressure Air Temp Water Temp Dewpoint Dewpoint Depression Visibility Wind Speed Wind Dir Waves Ship Positions

Hordafor III

Last reported at 2015-Jul-26 03:12 UTC. Time now 2015-Aug-04 11:45 UTC.
Position N 63°35' E 009°26'.
Warning: this ship's position is 9 days out of date.

Length 50 m; draft 6 m.

Type: Wing in ground effect craft. MMSI: 258044000.

Date/timePositionNaut miles runAvg speedWind from/ knotsBaromVisibWave heightAir tempDewpointWater temp
2015-Jul-26 03:12N 63°35' E 009°26'610.1
2015-Jul-26 02:33N 63°42' E 009°30'1010.1
2015-Jul-26 01:33N 63°51' E 009°39'10 9.7
2015-Jul-26 00:33N 63°60' E 009°47'59 9.9
2015-Jul-25 18:33N 64°48' E 011°07'10 9.9
2015-Jul-25 17:33N 64°55' E 011°24'1010.2
2015-Jul-25 16:33N 65°02' E 011°42'1210.3
2015-Jul-25 15:26N 65°12' E 011°53'64 9.4
2015-Jul-25 08:33N 66°15' E 012°26'7 6.7
2015-Jul-25 07:33N 66°22' E 012°22'0 0.0
2015-Jul-25 06:33N 66°22' E 012°22'0 0.0
2015-Jul-25 05:33N 66°22' E 012°22'0 0.0
2015-Jul-25 04:33N 66°22' E 012°22'0 0.0
2015-Jul-25 03:33N 66°22' E 012°22'0 0.1
2015-Jul-25 02:33N 66°22' E 012°23'0 0.0
2015-Jul-25 01:33N 66°22' E 012°23'0 0.0
2015-Jul-25 00:33N 66°22' E 012°23'0 0.0
2015-Jul-24 23:33N 66°22' E 012°23'4 3.9
2015-Jul-24 22:33N 66°24' E 012°30'1210.4
2015-Jul-24 21:23N 66°29' E 012°58'4 1.9
2015-Jul-24 19:04N 66°25' E 013°01'78 6.6
2015-Jul-24 07:12N 65°13' E 011°53'711.1
2015-Jul-24 06:32N 65°06' E 011°47'1010.6
2015-Jul-24 05:33N 64°58' E 011°32'1110.6
2015-Jul-24 04:33N 64°51' E 011°12'6310.2
2015-Jul-23 22:23N 63°60' E 009°47'8 9.9
2015-Jul-23 21:33N 63°52' E 009°42'10 9.9
2015-Jul-23 20:31N 63°43' E 009°31'  
2015-Jul-20 01:32N 63°37' E 009°27'1010.5
2015-Jul-20 00:33N 63°47' E 009°33'1110.7
2015-Jul-19 23:33N 63°55' E 009°47'1010.1
2015-Jul-19 22:33N 64°05' E 009°55'5310.5
2015-Jul-19 17:33N 64°48' E 011°06'1111.0
2015-Jul-19 16:33N 64°55' E 011°25'1110.8
2015-Jul-19 15:33N 65°03' E 011°43'1111.0
2015-Jul-19 14:33N 65°13' E 011°54'7410.1
2015-Jul-19 07:11N 66°22' E 012°58'710.1
2015-Jul-19 06:31N 66°29' E 012°59'6010.0
2015-Jul-19 00:33N 67°20' E 014°20'10 9.8
2015-Jul-18 23:33N 67°29' E 014°23'3 0.2
2015-Jul-18 11:27N 67°31' E 014°29'1011.4
2015-Jul-18 10:33N 67°21' E 014°22'1111.4
2015-Jul-18 09:33N 67°11' E 014°05'1111.1
2015-Jul-18 08:32N 67°02' E 013°48'1110.5
2015-Jul-18 07:31N 66°55' E 013°28'3110.3
2015-Jul-18 04:30N 66°27' E 012°51'1010.8
2015-Jul-18 03:33N 66°23' E 012°27'2 2.2
2015-Jul-18 02:33N 66°22' E 012°23'0 0.0
2015-Jul-18 01:33N 66°22' E 012°23'0 0.0
2015-Jul-18 00:33N 66°22' E 012°23'0 0.1
2015-Jul-17 23:33N 66°22' E 012°22'0 0.0
2015-Jul-17 22:33N 66°22' E 012°22'5 4.7
2015-Jul-17 21:33N 66°17' E 012°23'61 9.5
2015-Jul-17 15:07N 65°17' E 011°58'710.8
2015-Jul-17 14:31N 65°11' E 011°52'1110.9
2015-Jul-17 13:32N 65°01' E 011°42'1010.4
2015-Jul-17 12:33N 64°55' E 011°23'5 4.8
2015-Jul-17 11:33N 64°52' E 011°15'3 3.5
2015-Jul-17 10:33N 64°49' E 011°09'5410.3
2015-Jul-17 05:20N 64°03' E 010°03'8 9.7
2015-Jul-17 04:33N 63°58' E 009°51'1010.4
2015-Jul-17 03:33N 63°50' E 009°37'1010.3
2015-Jul-17 02:33N 63°40' E 009°29'  

Dump ship's entire track history